createdAt,value
2018-10-06T00:01:47.243Z,8.90
2018-10-06T00:04:16.935Z,8.90
2018-10-06T00:06:46.575Z,8.90
2018-10-06T00:09:16.064Z,8.90
2018-10-06T00:11:46.161Z,8.90
2018-10-06T00:14:16.038Z,8.90
2018-10-06T00:16:45.722Z,8.80
2018-10-06T00:19:15.448Z,8.80
2018-10-06T00:21:44.832Z,8.80
2018-10-06T00:24:15.013Z,8.80
2018-10-06T00:26:44.779Z,8.80
2018-10-06T00:29:14.364Z,8.80
2018-10-06T00:31:44.025Z,8.70
2018-10-06T00:34:13.609Z,8.70
2018-10-06T00:36:43.085Z,8.70
2018-10-06T00:39:12.869Z,8.70
2018-10-06T00:41:42.485Z,8.70
2018-10-06T00:44:11.981Z,8.70
2018-10-06T00:46:41.371Z,8.60
2018-10-06T00:49:10.891Z,8.60
2018-10-06T00:51:41.841Z,8.60
2018-10-06T00:54:11.333Z,8.60
2018-10-06T00:56:40.881Z,8.60
2018-10-06T00:59:11.265Z,8.70
2018-10-06T01:01:41.539Z,8.80
2018-10-06T01:04:11.378Z,8.90
2018-10-06T01:06:42.165Z,8.90
2018-10-06T01:09:12.374Z,9.00
2018-10-06T01:11:42.653Z,9.00
2018-10-06T01:14:12.216Z,9.00
2018-10-06T01:16:42.767Z,9.00
2018-10-06T01:19:13.156Z,9.00
2018-10-06T01:21:42.700Z,9.00
2018-10-06T01:24:12.198Z,8.90
2018-10-06T01:26:41.512Z,8.90
2018-10-06T01:29:11.751Z,8.90
2018-10-06T01:31:41.414Z,8.90
2018-10-06T01:34:10.926Z,8.90
2018-10-06T01:36:40.416Z,8.80
2018-10-06T01:39:10.042Z,8.80
2018-10-06T01:41:39.440Z,8.80
2018-10-06T01:44:09.044Z,8.80
2018-10-06T01:46:38.476Z,8.80
2018-10-06T01:49:08.032Z,8.70
2018-10-06T01:51:37.579Z,8.70
2018-10-06T01:54:07.294Z,8.70
2018-10-06T01:56:36.952Z,8.70
2018-10-06T01:59:06.550Z,8.70
2018-10-06T02:01:36.802Z,8.70
2018-10-06T02:04:06.295Z,8.70
2018-10-06T02:06:35.890Z,8.70
2018-10-06T02:09:06.617Z,8.60
2018-10-06T02:11:36.589Z,8.60
2018-10-06T02:14:06.153Z,8.60
2018-10-06T02:16:35.610Z,8.60
2018-10-06T02:19:05.867Z,8.60
2018-10-06T02:21:35.456Z,8.60
2018-10-06T02:24:05.613Z,8.60
2018-10-06T02:26:36.086Z,8.70
2018-10-06T02:29:05.695Z,8.60
2018-10-06T02:31:35.236Z,8.60
2018-10-06T02:34:05.219Z,8.60
2018-10-06T02:36:34.696Z,8.60
2018-10-06T02:39:05.149Z,8.60
2018-10-06T02:41:34.816Z,8.70
2018-10-06T02:44:04.548Z,8.70
2018-10-06T02:46:34.047Z,8.70
2018-10-06T02:49:03.717Z,8.70
2018-10-06T02:51:33.213Z,8.70
2018-10-06T02:54:06.722Z,8.70
2018-10-06T02:56:36.301Z,8.70
2018-10-06T03:01:37.434Z,8.70
2018-10-06T03:04:07.762Z,8.60
2018-10-06T03:06:37.369Z,8.60
2018-10-06T03:09:08.834Z,8.60
2018-10-06T03:11:38.465Z,8.70
2018-10-06T03:14:08.798Z,8.70
2018-10-06T03:16:38.141Z,8.70
2018-10-06T03:19:07.714Z,8.70
2018-10-06T03:21:37.560Z,8.70
2018-10-06T03:24:07.411Z,8.70
2018-10-06T03:26:38.150Z,8.70
2018-10-06T03:29:07.822Z,8.70
2018-10-06T03:31:38.136Z,8.70
2018-10-06T03:34:07.985Z,8.70
2018-10-06T03:36:38.454Z,8.70
2018-10-06T03:39:08.641Z,8.70
2018-10-06T03:41:38.113Z,8.70
2018-10-06T03:44:08.053Z,8.60
2018-10-06T03:46:37.648Z,8.70
2018-10-06T03:49:07.354Z,8.70
2018-10-06T03:51:37.923Z,8.70
2018-10-06T03:54:10.628Z,8.80
2018-10-06T03:56:42.267Z,8.80
2018-10-06T03:59:12.903Z,8.80
2018-10-06T04:01:43.665Z,8.80
2018-10-06T04:04:13.069Z,8.80
2018-10-06T04:06:42.495Z,8.80
2018-10-06T04:09:12.005Z,8.80
2018-10-06T04:11:41.487Z,8.70
2018-10-06T04:14:11.707Z,8.70
2018-10-06T04:16:41.232Z,8.70
2018-10-06T04:19:10.822Z,8.70
2018-10-06T04:21:46.001Z,8.70
2018-10-06T04:24:16.441Z,8.70
2018-10-06T04:26:46.211Z,8.70
2018-10-06T04:29:15.791Z,8.70
2018-10-06T04:31:45.848Z,8.70
2018-10-06T04:34:15.352Z,8.70
2018-10-06T04:36:44.861Z,8.70
2018-10-06T04:39:15.403Z,8.70
2018-10-06T04:41:45.426Z,8.70
2018-10-06T04:44:15.068Z,8.70
2018-10-06T04:46:44.906Z,8.80
2018-10-06T04:49:14.346Z,8.70
2018-10-06T04:51:44.453Z,8.80
2018-10-06T04:54:14.859Z,8.80
2018-10-06T04:56:44.359Z,8.80
2018-10-06T04:59:14.821Z,8.80
2018-10-06T05:01:44.309Z,8.90
2018-10-06T05:04:13.773Z,8.90
2018-10-06T05:06:43.350Z,8.90
2018-10-06T05:09:13.497Z,9.00
2018-10-06T05:11:43.159Z,9.00
2018-10-06T05:14:12.659Z,9.00
2018-10-06T05:16:42.109Z,9.10
2018-10-06T05:19:11.727Z,9.10
2018-10-06T05:21:41.323Z,9.10
2018-10-06T05:24:11.681Z,9.10
2018-10-06T05:26:41.274Z,9.20
2018-10-06T05:29:10.884Z,9.20
2018-10-06T05:31:40.777Z,9.20
2018-10-06T05:34:10.937Z,9.20
2018-10-06T05:36:40.694Z,9.20
2018-10-06T05:39:11.276Z,9.30
2018-10-06T05:41:45.461Z,9.30
2018-10-06T05:44:22.299Z,9.30
